sensor_id;sensor_type;location;lat;lon;timestamp;temperature;humidity
18163;DHT22;9206;50.994;4.538;2022-10-31T00:02:00;12.60;99.90
18163;DHT22;9206;50.994;4.538;2022-10-31T00:04:47;12.60;99.90
18163;DHT22;9206;50.994;4.538;2022-10-31T00:07:42;12.60;99.90
18163;DHT22;9206;50.994;4.538;2022-10-31T00:10:37;12.60;99.90
18163;DHT22;9206;50.994;4.538;2022-10-31T00:13:33;12.50;99.90
18163;DHT22;9206;50.994;4.538;2022-10-31T00:16:24;12.50;99.90
18163;DHT22;9206;50.994;4.538;2022-10-31T00:19:14;12.50;99.90
18163;DHT22;9206;50.994;4.538;2022-10-31T00:22:01;12.40;99.90
18163;DHT22;9206;50.994;4.538;2022-10-31T00:24:50;12.40;99.90
18163;DHT22;9206;50.994;4.538;2022-10-31T00:27:44;12.30;99.90
18163;DHT22;9206;50.994;4.538;2022-10-31T00:30:31;12.30;99.90
18163;DHT22;9206;50.994;4.538;2022-10-31T00:33:25;12.30;99.90
18163;DHT22;9206;50.994;4.538;2022-10-31T00:36:17;12.20;99.90
18163;DHT22;9206;50.994;4.538;2022-10-31T00:39:07;12.10;99.90
18163;DHT22;9206;50.994;4.538;2022-10-31T00:41:56;12.00;99.90
18163;DHT22;9206;50.994;4.538;2022-10-31T00:44:45;12.00;99.90
18163;DHT22;9206;50.994;4.538;2022-10-31T00:47:34;12.00;99.90
18163;DHT22;9206;50.994;4.538;2022-10-31T00:50:27;12.00;99.90
18163;DHT22;9206;50.994;4.538;2022-10-31T00:53:15;11.90;99.90
18163;DHT22;9206;50.994;4.538;2022-10-31T00:56:03;11.80;99.90
18163;DHT22;9206;50.994;4.538;2022-10-31T00:59:03;11.70;99.90
18163;DHT22;9206;50.994;4.538;2022-10-31T01:01:54;11.60;99.90
18163;DHT22;9206;50.994;4.538;2022-10-31T01:04:42;11.50;99.90
18163;DHT22;9206;50.994;4.538;2022-10-31T01:07:35;11.50;99.90
18163;DHT22;9206;50.994;4.538;2022-10-31T01:10:23;11.40;99.90
18163;DHT22;9206;50.994;4.538;2022-10-31T01:13:14;11.40;99.90
18163;DHT22;9206;50.994;4.538;2022-10-31T01:16:05;11.30;99.90
18163;DHT22;9206;50.994;4.538;2022-10-31T01:18:59;11.30;99.90
18163;DHT22;9206;50.994;4.538;2022-10-31T01:21:49;11.20;99.90
18163;DHT22;9206;50.994;4.538;2022-10-31T01:24:43;11.10;99.90
18163;DHT22;9206;50.994;4.538;2022-10-31T01:27:33;11.10;99.90
18163;DHT22;9206;50.994;4.538;2022-10-31T01:30:21;11.00;99.90
18163;DHT22;9206;50.994;4.538;2022-10-31T01:33:11;11.00;99.90
18163;DHT22;9206;50.994;4.538;2022-10-31T01:35:58;10.90;99.90
18163;DHT22;9206;50.994;4.538;2022-10-31T01:38:53;10.80;99.90
18163;DHT22;9206;50.994;4.538;2022-10-31T01:41:49;10.70;99.90
18163;DHT22;9206;50.994;4.538;2022-10-31T01:44:58;10.70;99.90
18163;DHT22;9206;50.994;4.538;2022-10-31T01:47:48;10.70;99.90
18163;DHT22;9206;50.994;4.538;2022-10-31T01:50:44;10.60;99.90
18163;DHT22;9206;50.994;4.538;2022-10-31T01:53:35;10.60;99.90
18163;DHT22;9206;50.994;4.538;2022-10-31T01:56:27;10.60;99.90
18163;DHT22;9206;50.994;4.538;2022-10-31T01:59:20;10.50;99.90
18163;DHT22;9206;50.994;4.538;2022-10-31T02:02:09;10.50;99.90
18163;DHT22;9206;50.994;4.538;2022-10-31T02:05:00;10.40;99.90
18163;DHT22;9206;50.994;4.538;2022-10-31T02:08:06;10.40;99.90
18163;DHT22;9206;50.994;4.538;2022-10-31T02:11:01;10.40;99.90
18163;DHT22;9206;50.994;4.538;2022-10-31T02:13:49;10.30;99.90
18163;DHT22;9206;50.994;4.538;2022-10-31T02:16:43;10.30;99.90
18163;DHT22;9206;50.994;4.538;2022-10-31T02:19:39;10.30;99.90
18163;DHT22;9206;50.994;4.538;2022-10-31T02:22:36;10.20;99.90
18163;DHT22;9206;50.994;4.538;2022-10-31T02:25:51;10.20;99.90
18163;DHT22;9206;50.994;4.538;2022-10-31T02:29:05;10.10;99.90
18163;DHT22;9206;50.994;4.538;2022-10-31T02:32:02;10.10;99.90
18163;DHT22;9206;50.994;4.538;2022-10-31T02:35:11;10.10;99.90
18163;DHT22;9206;50.994;4.538;2022-10-31T02:38:10;10.10;99.90
18163;DHT22;9206;50.994;4.538;2022-10-31T02:41:11;10.10;99.90
18163;DHT22;9206;50.994;4.538;2022-10-31T02:44:05;10.00;99.90
18163;DHT22;9206;50.994;4.538;2022-10-31T02:46:59;10.00;99.90
18163;DHT22;9206;50.994;4.538;2022-10-31T02:49:56;9.90;99.90
18163;DHT22;9206;50.994;4.538;2022-10-31T02:52:50;9.80;99.90
18163;DHT22;9206;50.994;4.538;2022-10-31T02:55:52;9.80;99.90
18163;DHT22;9206;50.994;4.538;2022-10-31T02:58:45;9.80;99.90
18163;DHT22;9206;50.994;4.538;2022-10-31T03:02:00;9.70;99.90
18163;DHT22;9206;50.994;4.538;2022-10-31T03:05:08;9.70;99.90
18163;DHT22;9206;50.994;4.538;2022-10-31T03:08:02;9.70;99.90
18163;DHT22;9206;50.994;4.538;2022-10-31T03:11:07;9.70;99.90
18163;DHT22;9206;50.994;4.538;2022-10-31T03:13:59;9.70;99.90
18163;DHT22;9206;50.994;4.538;2022-10-31T03:16:50;9.70;99.90
18163;DHT22;9206;50.994;4.538;2022-10-31T03:19:47;9.70;99.90
18163;DHT22;9206;50.994;4.538;2022-10-31T03:22:37;9.70;99.90
18163;DHT22;9206;50.994;4.538;2022-10-31T03:25:34;9.70;99.90
18163;DHT22;9206;50.994;4.538;2022-10-31T03:28:30;9.70;99.90
18163;DHT22;9206;50.994;4.538;2022-10-31T03:31:27;9.70;99.90
18163;DHT22;9206;50.994;4.538;2022-10-31T03:34:22;9.70;99.90
18163;DHT22;9206;50.994;4.538;2022-10-31T03:37:19;9.70;99.90
18163;DHT22;9206;50.994;4.538;2022-10-31T03:40:10;9.60;99.90
18163;DHT22;9206;50.994;4.538;2022-10-31T03:43:07;9.60;99.90
18163;DHT22;9206;50.994;4.538;2022-10-31T03:45:57;9.60;99.90
18163;DHT22;9206;50.994;4.538;2022-10-31T03:48:47;9.50;99.90
18163;DHT22;9206;50.994;4.538;2022-10-31T03:51:39;9.50;99.90
18163;DHT22;9206;50.994;4.538;2022-10-31T03:54:35;9.40;99.90
18163;DHT22;9206;50.994;4.538;2022-10-31T03:57:27;9.40;99.90
18163;DHT22;9206;50.994;4.538;2022-10-31T04:00:21;9.30;99.90
18163;DHT22;9206;50.994;4.538;2022-10-31T04:03:16;9.30;99.90
18163;DHT22;9206;50.994;4.538;2022-10-31T04:06:08;9.30;99.90
18163;DHT22;9206;50.994;4.538;2022-10-31T04:09:01;9.20;99.90
18163;DHT22;9206;50.994;4.538;2022-10-31T04:11:54;9.20;99.90
18163;DHT22;9206;50.994;4.538;2022-10-31T04:14:46;9.10;99.90
18163;DHT22;9206;50.994;4.538;2022-10-31T04:17:36;9.10;99.90
18163;DHT22;9206;50.994;4.538;2022-10-31T04:20:30;9.10;99.90
18163;DHT22;9206;50.994;4.538;2022-10-31T04:23:22;9.10;99.90
18163;DHT22;9206;50.994;4.538;2022-10-31T04:26:15;9.10;99.90
18163;DHT22;9206;50.994;4.538;2022-10-31T04:29:09;9.10;99.90
18163;DHT22;9206;50.994;4.538;2022-10-31T04:32:03;9.10;99.90
18163;DHT22;9206;50.994;4.538;2022-10-31T04:34:52;9.10;99.90
18163;DHT22;9206;50.994;4.538;2022-10-31T04:37:41;9.00;99.90
18163;DHT22;9206;50.994;4.538;2022-10-31T04:40:28;9.00;99.90
18163;DHT22;9206;50.994;4.538;2022-10-31T04:43:18;9.00;99.90
18163;DHT22;9206;50.994;4.538;2022-10-31T04:46:06;9.00;99.90
18163;DHT22;9206;50.994;4.538;2022-10-31T04:49:00;9.00;99.90
18163;DHT22;9206;50.994;4.538;2022-10-31T04:51:48;8.90;99.90
18163;DHT22;9206;50.994;4.538;2022-10-31T04:54:37;8.90;99.90
18163;DHT22;9206;50.994;4.538;2022-10-31T04:57:31;8.90;99.90
18163;DHT22;9206;50.994;4.538;2022-10-31T05:00:21;8.90;99.90
18163;DHT22;9206;50.994;4.538;2022-10-31T05:03:10;8.90;99.90
18163;DHT22;9206;50.994;4.538;2022-10-31T05:05:59;8.90;99.90
18163;DHT22;9206;50.994;4.538;2022-10-31T05:08:49;8.90;99.90
18163;DHT22;9206;50.994;4.538;2022-10-31T05:11:38;8.90;99.90
18163;DHT22;9206;50.994;4.538;2022-10-31T05:14:27;8.90;99.90
18163;DHT22;9206;50.994;4.538;2022-10-31T05:17:15;9.00;99.90
18163;DHT22;9206;50.994;4.538;2022-10-31T05:20:04;8.90;99.90
18163;DHT22;9206;50.994;4.538;2022-10-31T05:22:59;8.90;99.90
18163;DHT22;9206;50.994;4.538;2022-10-31T05:25:46;8.90;99.90
18163;DHT22;9206;50.994;4.538;2022-10-31T05:28:35;8.90;99.90
18163;DHT22;9206;50.994;4.538;2022-10-31T05:31:25;8.90;99.90
18163;DHT22;9206;50.994;4.538;2022-10-31T05:34:12;8.90;99.90
18163;DHT22;9206;50.994;4.538;2022-10-31T05:37:01;9.00;99.90
18163;DHT22;9206;50.994;4.538;2022-10-31T05:39:54;9.00;99.90
18163;DHT22;9206;50.994;4.538;2022-10-31T05:42:43;9.00;99.90
18163;DHT22;9206;50.994;4.538;2022-10-31T05:45:31;9.00;99.90
18163;DHT22;9206;50.994;4.538;2022-10-31T05:48:24;9.10;99.90
18163;DHT22;9206;50.994;4.538;2022-10-31T05:51:12;9.10;99.90
18163;DHT22;9206;50.994;4.538;2022-10-31T05:54:01;9.10;99.90
18163;DHT22;9206;50.994;4.538;2022-10-31T05:57:01;9.20;99.90
18163;DHT22;9206;50.994;4.538;2022-10-31T05:59:58;9.20;99.90
18163;DHT22;9206;50.994;4.538;2022-10-31T06:02:46;9.20;99.90
18163;DHT22;9206;50.994;4.538;2022-10-31T06:05:34;9.20;99.90
18163;DHT22;9206;50.994;4.538;2022-10-31T06:08:24;9.10;99.90
18163;DHT22;9206;50.994;4.538;2022-10-31T06:11:15;9.10;99.90
18163;DHT22;9206;50.994;4.538;2022-10-31T06:14:03;9.10;99.90
18163;DHT22;9206;50.994;4.538;2022-10-31T06:16:56;9.10;99.90
18163;DHT22;9206;50.994;4.538;2022-10-31T06:19:44;9.30;99.90
18163;DHT22;9206;50.994;4.538;2022-10-31T06:22:33;9.40;99.90
18163;DHT22;9206;50.994;4.538;2022-10-31T06:25:26;9.40;99.90
18163;DHT22;9206;50.994;4.538;2022-10-31T06:28:27;9.40;99.90
18163;DHT22;9206;50.994;4.538;2022-10-31T06:31:26;9.50;99.90
18163;DHT22;9206;50.994;4.538;2022-10-31T06:34:30;9.50;99.90
18163;DHT22;9206;50.994;4.538;2022-10-31T06:37:18;9.50;99.90
18163;DHT22;9206;50.994;4.538;2022-10-31T06:40:12;9.50;99.90
18163;DHT22;9206;50.994;4.538;2022-10-31T06:43:03;9.60;99.90
18163;DHT22;9206;50.994;4.538;2022-10-31T06:45:55;9.60;99.90
18163;DHT22;9206;50.994;4.538;2022-10-31T06:48:43;9.60;99.90
18163;DHT22;9206;50.994;4.538;2022-10-31T06:51:38;9.70;99.90
18163;DHT22;9206;50.994;4.538;2022-10-31T06:54:27;9.70;99.90
18163;DHT22;9206;50.994;4.538;2022-10-31T06:57:15;9.80;99.90
18163;DHT22;9206;50.994;4.538;2022-10-31T07:00:09;9.80;99.90
18163;DHT22;9206;50.994;4.538;2022-10-31T07:03:06;9.90;99.90
18163;DHT22;9206;50.994;4.538;2022-10-31T07:05:59;9.90;99.90
18163;DHT22;9206;50.994;4.538;2022-10-31T07:09:05;10.00;99.90
18163;DHT22;9206;50.994;4.538;2022-10-31T07:12:00;10.00;99.90
18163;DHT22;9206;50.994;4.538;2022-10-31T07:15:32;10.10;99.90
18163;DHT22;9206;50.994;4.538;2022-10-31T07:25:14;10.40;99.90
18163;DHT22;9206;50.994;4.538;2022-10-31T07:28:55;10.50;99.90
18163;DHT22;9206;50.994;4.538;2022-10-31T07:32:11;10.60;99.90
18163;DHT22;9206;50.994;4.538;2022-10-31T07:38:56;10.90;99.90
18163;DHT22;9206;50.994;4.538;2022-10-31T07:41:46;11.00;99.90
18163;DHT22;9206;50.994;4.538;2022-10-31T07:44:49;11.10;99.90
18163;DHT22;9206;50.994;4.538;2022-10-31T07:47:53;11.20;99.90
18163;DHT22;9206;50.994;4.538;2022-10-31T07:50:42;11.30;99.90
18163;DHT22;9206;50.994;4.538;2022-10-31T07:53:31;11.40;99.90
18163;DHT22;9206;50.994;4.538;2022-10-31T07:56:25;11.50;99.90
18163;DHT22;9206;50.994;4.538;2022-10-31T07:59:22;11.50;99.90
18163;DHT22;9206;50.994;4.538;2022-10-31T08:02:23;11.60;99.90
18163;DHT22;9206;50.994;4.538;2022-10-31T08:05:17;11.70;99.90
18163;DHT22;9206;50.994;4.538;2022-10-31T08:08:07;11.80;99.90
18163;DHT22;9206;50.994;4.538;2022-10-31T08:11:04;11.90;99.90
18163;DHT22;9206;50.994;4.538;2022-10-31T08:14:01;12.00;99.90
18163;DHT22;9206;50.994;4.538;2022-10-31T08:16:59;12.00;99.90
18163;DHT22;9206;50.994;4.538;2022-10-31T08:19:51;12.10;99.90
18163;DHT22;9206;50.994;4.538;2022-10-31T08:22:42;12.30;99.90
18163;DHT22;9206;50.994;4.538;2022-10-31T08:25:51;12.40;99.90
18163;DHT22;9206;50.994;4.538;2022-10-31T08:28:50;12.50;99.90
18163;DHT22;9206;50.994;4.538;2022-10-31T08:32:17;12.60;99.90
18163;DHT22;9206;50.994;4.538;2022-10-31T08:35:21;12.80;99.90
18163;DHT22;9206;50.994;4.538;2022-10-31T08:38:10;12.80;99.90
18163;DHT22;9206;50.994;4.538;2022-10-31T08:41:03;12.90;99.90
18163;DHT22;9206;50.994;4.538;2022-10-31T08:44:34;13.00;99.90
18163;DHT22;9206;50.994;4.538;2022-10-31T08:47:38;12.90;99.90
18163;DHT22;9206;50.994;4.538;2022-10-31T08:50:32;12.90;99.90
18163;DHT22;9206;50.994;4.538;2022-10-31T08:53:35;12.80;99.90
18163;DHT22;9206;50.994;4.538;2022-10-31T09:51:07;13.70;99.90
18163;DHT22;9206;50.994;4.538;2022-10-31T10:03:10;13.70;99.90
18163;DHT22;9206;50.994;4.538;2022-10-31T10:06:28;13.80;99.90
18163;DHT22;9206;50.994;4.538;2022-10-31T10:09:24;13.90;99.90
18163;DHT22;9206;50.994;4.538;2022-10-31T10:12:46;14.00;99.90
18163;DHT22;9206;50.994;4.538;2022-10-31T10:23:45;14.70;99.90
18163;DHT22;9206;50.994;4.538;2022-10-31T10:27:03;15.10;99.90
18163;DHT22;9206;50.994;4.538;2022-10-31T10:30:13;15.30;99.90
18163;DHT22;9206;50.994;4.538;2022-10-31T10:33:11;15.40;99.90
18163;DHT22;9206;50.994;4.538;2022-10-31T10:52:35;16.20;99.90
18163;DHT22;9206;50.994;4.538;2022-10-31T10:55:58;16.10;99.90
18163;DHT22;9206;50.994;4.538;2022-10-31T10:59:16;16.00;99.90
18163;DHT22;9206;50.994;4.538;2022-10-31T11:02:34;16.10;99.90
18163;DHT22;9206;50.994;4.538;2022-10-31T11:16:03;19.30;99.90
18163;DHT22;9206;50.994;4.538;2022-10-31T11:19:16;19.60;99.90
18163;DHT22;9206;50.994;4.538;2022-10-31T11:22:20;20.20;99.90
18163;DHT22;9206;50.994;4.538;2022-10-31T11:25:23;20.20;99.90
18163;DHT22;9206;50.994;4.538;2022-10-31T11:28:11;19.70;99.90
18163;DHT22;9206;50.994;4.538;2022-10-31T11:31:16;19.50;99.90
18163;DHT22;9206;50.994;4.538;2022-10-31T11:34:14;19.30;99.90
18163;DHT22;9206;50.994;4.538;2022-10-31T11:37:40;19.20;99.90
18163;DHT22;9206;50.994;4.538;2022-10-31T11:40:57;19.30;99.90
18163;DHT22;9206;50.994;4.538;2022-10-31T11:43:52;19.40;99.90
18163;DHT22;9206;50.994;4.538;2022-10-31T11:46:54;19.30;99.90
18163;DHT22;9206;50.994;4.538;2022-10-31T11:50:24;19.00;99.90
18163;DHT22;9206;50.994;4.538;2022-10-31T11:53:17;18.60;99.90
18163;DHT22;9206;50.994;4.538;2022-10-31T11:56:13;18.50;99.90
18163;DHT22;9206;50.994;4.538;2022-10-31T11:59:03;18.40;99.90
18163;DHT22;9206;50.994;4.538;2022-10-31T12:01:53;18.40;99.90
18163;DHT22;9206;50.994;4.538;2022-10-31T12:04:55;18.40;99.90
18163;DHT22;9206;50.994;4.538;2022-10-31T12:07:52;18.80;99.90
18163;DHT22;9206;50.994;4.538;2022-10-31T12:14:38;19.60;99.90
18163;DHT22;9206;50.994;4.538;2022-10-31T12:17:35;19.90;99.90
18163;DHT22;9206;50.994;4.538;2022-10-31T12:20:47;20.60;99.90
18163;DHT22;9206;50.994;4.538;2022-10-31T12:49:02;24.60;99.90
18163;DHT22;9206;50.994;4.538;2022-10-31T12:52:02;24.80;99.90
18163;DHT22;9206;50.994;4.538;2022-10-31T12:55:09;25.30;99.90
18163;DHT22;9206;50.994;4.538;2022-10-31T12:58:01;26.00;99.90
18163;DHT22;9206;50.994;4.538;2022-10-31T13:01:04;25.90;99.90
18163;DHT22;9206;50.994;4.538;2022-10-31T13:04:01;24.50;99.90
18163;DHT22;9206;50.994;4.538;2022-10-31T13:06:56;23.50;99.90
18163;DHT22;9206;50.994;4.538;2022-10-31T13:09:51;23.40;99.90
18163;DHT22;9206;50.994;4.538;2022-10-31T13:12:46;23.90;99.90
18163;DHT22;9206;50.994;4.538;2022-10-31T13:15:47;24.00;99.90
18163;DHT22;9206;50.994;4.538;2022-10-31T13:18:40;24.90;99.90
18163;DHT22;9206;50.994;4.538;2022-10-31T13:21:37;26.20;99.90
18163;DHT22;9206;50.994;4.538;2022-10-31T13:24:36;27.00;99.90
18163;DHT22;9206;50.994;4.538;2022-10-31T13:27:41;28.10;99.90
18163;DHT22;9206;50.994;4.538;2022-10-31T13:30:34;28.80;99.90
18163;DHT22;9206;50.994;4.538;2022-10-31T13:33:29;29.00;99.90
18163;DHT22;9206;50.994;4.538;2022-10-31T13:36:33;28.60;99.90
18163;DHT22;9206;50.994;4.538;2022-10-31T13:40:01;28.40;99.90
18163;DHT22;9206;50.994;4.538;2022-10-31T13:43:05;27.70;99.90
18163;DHT22;9206;50.994;4.538;2022-10-31T13:46:22;27.60;99.90
18163;DHT22;9206;50.994;4.538;2022-10-31T13:49:37;27.20;99.90
18163;DHT22;9206;50.994;4.538;2022-10-31T13:52:33;27.00;99.90
18163;DHT22;9206;50.994;4.538;2022-10-31T13:55:38;27.10;99.90
18163;DHT22;9206;50.994;4.538;2022-10-31T13:58:29;27.20;99.90
18163;DHT22;9206;50.994;4.538;2022-10-31T14:01:20;27.30;99.90
18163;DHT22;9206;50.994;4.538;2022-10-31T14:04:15;27.00;99.90
18163;DHT22;9206;50.994;4.538;2022-10-31T14:07:06;27.00;99.90
18163;DHT22;9206;50.994;4.538;2022-10-31T14:10:00;26.90;99.90
18163;DHT22;9206;50.994;4.538;2022-10-31T14:13:04;26.50;99.90
18163;DHT22;9206;50.994;4.538;2022-10-31T14:15:56;26.80;99.90
18163;DHT22;9206;50.994;4.538;2022-10-31T14:18:48;26.30;99.90
18163;DHT22;9206;50.994;4.538;2022-10-31T14:21:44;25.30;99.90
18163;DHT22;9206;50.994;4.538;2022-10-31T14:24:35;25.60;99.90
18163;DHT22;9206;50.994;4.538;2022-10-31T14:27:44;25.40;99.90
18163;DHT22;9206;50.994;4.538;2022-10-31T14:30:33;25.60;99.90
18163;DHT22;9206;50.994;4.538;2022-10-31T14:33:23;25.50;99.90
18163;DHT22;9206;50.994;4.538;2022-10-31T14:36:18;25.40;99.90
18163;DHT22;9206;50.994;4.538;2022-10-31T14:39:18;25.10;99.90
18163;DHT22;9206;50.994;4.538;2022-10-31T14:42:19;24.60;99.90
18163;DHT22;9206;50.994;4.538;2022-10-31T14:45:31;24.30;99.90
18163;DHT22;9206;50.994;4.538;2022-10-31T14:51:44;24.10;99.90
18163;DHT22;9206;50.994;4.538;2022-10-31T14:54:51;23.50;99.90
18163;DHT22;9206;50.994;4.538;2022-10-31T14:57:51;22.90;99.90
18163;DHT22;9206;50.994;4.538;2022-10-31T15:00:43;22.90;99.90
18163;DHT22;9206;50.994;4.538;2022-10-31T15:03:42;22.80;99.90
18163;DHT22;9206;50.994;4.538;2022-10-31T15:06:39;22.10;99.90
18163;DHT22;9206;50.994;4.538;2022-10-31T15:09:29;21.60;99.90
18163;DHT22;9206;50.994;4.538;2022-10-31T15:12:23;21.80;99.90
18163;DHT22;9206;50.994;4.538;2022-10-31T15:15:11;21.00;99.90
18163;DHT22;9206;50.994;4.538;2022-10-31T15:18:04;20.90;99.90
18163;DHT22;9206;50.994;4.538;2022-10-31T15:20:53;20.80;99.90
18163;DHT22;9206;50.994;4.538;2022-10-31T15:23:42;20.30;99.90
18163;DHT22;9206;50.994;4.538;2022-10-31T15:26:35;19.60;99.90
18163;DHT22;9206;50.994;4.538;2022-10-31T15:29:27;19.20;99.90
18163;DHT22;9206;50.994;4.538;2022-10-31T15:32:19;18.80;99.90
18163;DHT22;9206;50.994;4.538;2022-10-31T15:35:14;18.50;99.90
18163;DHT22;9206;50.994;4.538;2022-10-31T15:38:11;18.20;99.90
18163;DHT22;9206;50.994;4.538;2022-10-31T15:41:22;18.00;99.90
18163;DHT22;9206;50.994;4.538;2022-10-31T15:44:15;17.80;99.90
18163;DHT22;9206;50.994;4.538;2022-10-31T15:47:06;17.70;99.90
18163;DHT22;9206;50.994;4.538;2022-10-31T15:49:55;17.60;99.90
18163;DHT22;9206;50.994;4.538;2022-10-31T15:52:50;17.50;99.90
18163;DHT22;9206;50.994;4.538;2022-10-31T15:55:47;17.30;99.90
18163;DHT22;9206;50.994;4.538;2022-10-31T15:58:54;17.20;99.90
18163;DHT22;9206;50.994;4.538;2022-10-31T16:01:59;17.10;99.90
18163;DHT22;9206;50.994;4.538;2022-10-31T16:05:16;17.00;99.90
18163;DHT22;9206;50.994;4.538;2022-10-31T16:08:49;16.80;99.90
18163;DHT22;9206;50.994;4.538;2022-10-31T18:00:44;15.10;99.90
18163;DHT22;9206;50.994;4.538;2022-10-31T18:03:40;15.10;99.90
18163;DHT22;9206;50.994;4.538;2022-10-31T18:11:08;15.10;99.90
18163;DHT22;9206;50.994;4.538;2022-10-31T18:36:02;14.90;99.90
18163;DHT22;9206;50.994;4.538;2022-10-31T20:29:00;15.80;99.90
18163;DHT22;9206;50.994;4.538;2022-10-31T20:51:06;16.10;99.90
18163;DHT22;9206;50.994;4.538;2022-10-31T20:58:20;16.10;99.90
18163;DHT22;9206;50.994;4.538;2022-10-31T21:01:39;16.20;99.90
18163;DHT22;9206;50.994;4.538;2022-10-31T21:30:06;16.30;99.90
18163;DHT22;9206;50.994;4.538;2022-10-31T21:34:13;16.30;99.90
18163;DHT22;9206;50.994;4.538;2022-10-31T21:37:53;16.30;99.90
18163;DHT22;9206;50.994;4.538;2022-10-31T21:44:26;16.60;99.90
18163;DHT22;9206;50.994;4.538;2022-10-31T21:51:51;16.80;99.90
18163;DHT22;9206;50.994;4.538;2022-10-31T21:55:12;16.90;99.90
18163;DHT22;9206;50.994;4.538;2022-10-31T21:58:12;16.90;99.90
18163;DHT22;9206;50.994;4.538;2022-10-31T22:01:05;16.80;99.90
18163;DHT22;9206;50.994;4.538;2022-10-31T22:07:07;16.80;99.90
18163;DHT22;9206;50.994;4.538;2022-10-31T22:10:53;16.80;99.90
18163;DHT22;9206;50.994;4.538;2022-10-31T22:13:55;16.80;99.90
18163;DHT22;9206;50.994;4.538;2022-10-31T22:17:13;16.90;99.90
18163;DHT22;9206;50.994;4.538;2022-10-31T22:20:25;16.80;99.90
18163;DHT22;9206;50.994;4.538;2022-10-31T22:58:02;17.10;99.90
